Winnipeg, Canada
Current Conditions -  °F | °C
As of 4:00 AM on Monday 20 Oct 2014 (Local Time) from CYWG Reporting Station
Broken Clouds Broken Clouds  
Wind Chill: 34°   Ceiling: 1100
Heat Index: 39°   Visibility: 15mi
Dew Point: 37°   Wind: 8mph
Humidity: 93%   Direction: 360°N
Pressure: 30.03"   Gusts: NA
Location:  49.9°N, 97.14°W
Report Text: CYWG 200900Z 36007KT 15SM BKN011 04/03 A3003 RMK SF7 SLP174
Loading
Personal Weather Stations






























Interactive Weather Map
Tropical Storm Tracking
New forecast layout! Learn more

10-Day Weather Forecast

Advertisements
Track Severe Weather on mobile